sensor_id;sensor_type;location;lat;lon;timestamp;temperature;humidity
67050;DHT22;53955;52.442;13.284;2022-07-23T00:00:19;22.90;50.40
67050;DHT22;53955;52.442;13.284;2022-07-23T00:02:46;22.90;50.30
67050;DHT22;53955;52.442;13.284;2022-07-23T00:05:13;22.90;49.80
67050;DHT22;53955;52.442;13.284;2022-07-23T00:07:40;22.80;50.30
67050;DHT22;53955;52.442;13.284;2022-07-23T00:10:07;22.80;50.70
67050;DHT22;53955;52.442;13.284;2022-07-23T00:12:34;22.70;51.00
67050;DHT22;53955;52.442;13.284;2022-07-23T00:15:01;22.70;50.40
67050;DHT22;53955;52.442;13.284;2022-07-23T00:17:29;22.70;51.00
67050;DHT22;53955;52.442;13.284;2022-07-23T00:19:57;22.70;50.70
67050;DHT22;53955;52.442;13.284;2022-07-23T00:22:23;22.70;50.80
67050;DHT22;53955;52.442;13.284;2022-07-23T00:24:50;22.70;50.40
67050;DHT22;53955;52.442;13.284;2022-07-23T00:27:17;22.70;50.60
67050;DHT22;53955;52.442;13.284;2022-07-23T00:29:43;22.60;50.20
67050;DHT22;53955;52.442;13.284;2022-07-23T00:32:10;22.60;50.80
67050;DHT22;53955;52.442;13.284;2022-07-23T00:34:38;22.60;50.40
67050;DHT22;53955;52.442;13.284;2022-07-23T00:37:04;22.60;50.90
67050;DHT22;53955;52.442;13.284;2022-07-23T00:39:31;22.60;50.70
67050;DHT22;53955;52.442;13.284;2022-07-23T00:41:57;22.60;50.10
67050;DHT22;53955;52.442;13.284;2022-07-23T00:44:26;22.60;50.80
67050;DHT22;53955;52.442;13.284;2022-07-23T00:46:55;22.70;50.10
67050;DHT22;53955;52.442;13.284;2022-07-23T00:49:23;22.70;50.00
67050;DHT22;53955;52.442;13.284;2022-07-23T00:51:52;22.70;50.70
67050;DHT22;53955;52.442;13.284;2022-07-23T00:54:22;22.60;49.80
67050;DHT22;53955;52.442;13.284;2022-07-23T00:56:49;22.60;50.60
67050;DHT22;53955;52.442;13.284;2022-07-23T00:59:16;22.60;50.70
67050;DHT22;53955;52.442;13.284;2022-07-23T01:01:42;22.60;50.90
67050;DHT22;53955;52.442;13.284;2022-07-23T01:04:10;22.60;51.20
67050;DHT22;53955;52.442;13.284;2022-07-23T01:06:38;22.60;50.90
67050;DHT22;53955;52.442;13.284;2022-07-23T01:09:07;22.70;51.40
67050;DHT22;53955;52.442;13.284;2022-07-23T01:11:34;22.70;51.10
67050;DHT22;53955;52.442;13.284;2022-07-23T01:14:08;22.80;49.80
67050;DHT22;53955;52.442;13.284;2022-07-23T01:16:35;22.70;49.70
67050;DHT22;53955;52.442;13.284;2022-07-23T01:19:01;22.70;49.90
67050;DHT22;53955;52.442;13.284;2022-07-23T01:21:29;22.50;50.00
67050;DHT22;53955;52.442;13.284;2022-07-23T01:23:57;22.50;50.70
67050;DHT22;53955;52.442;13.284;2022-07-23T01:26:23;22.50;50.40
67050;DHT22;53955;52.442;13.284;2022-07-23T01:28:50;22.50;50.30
67050;DHT22;53955;52.442;13.284;2022-07-23T01:31:17;22.60;50.40
67050;DHT22;53955;52.442;13.284;2022-07-23T01:33:44;22.60;50.50
67050;DHT22;53955;52.442;13.284;2022-07-23T01:36:11;22.60;50.20
67050;DHT22;53955;52.442;13.284;2022-07-23T01:38:37;22.60;49.80
67050;DHT22;53955;52.442;13.284;2022-07-23T01:41:05;22.50;50.00
67050;DHT22;53955;52.442;13.284;2022-07-23T01:43:32;22.50;49.80
67050;DHT22;53955;52.442;13.284;2022-07-23T01:45:58;22.40;50.20
67050;DHT22;53955;52.442;13.284;2022-07-23T01:48:25;22.30;50.70
67050;DHT22;53955;52.442;13.284;2022-07-23T01:50:51;22.40;50.10
67050;DHT22;53955;52.442;13.284;2022-07-23T01:53:18;22.40;50.10
67050;DHT22;53955;52.442;13.284;2022-07-23T01:55:45;22.30;49.90
67050;DHT22;53955;52.442;13.284;2022-07-23T01:58:13;22.20;49.80
67050;DHT22;53955;52.442;13.284;2022-07-23T02:00:39;22.20;50.40
67050;DHT22;53955;52.442;13.284;2022-07-23T02:03:06;22.30;50.20
67050;DHT22;53955;52.442;13.284;2022-07-23T02:05:32;22.20;50.80
67050;DHT22;53955;52.442;13.284;2022-07-23T02:08:00;22.30;50.00
67050;DHT22;53955;52.442;13.284;2022-07-23T02:10:27;22.40;50.30
67050;DHT22;53955;52.442;13.284;2022-07-23T02:12:54;22.40;50.00
67050;DHT22;53955;52.442;13.284;2022-07-23T02:15:22;22.30;50.30
67050;DHT22;53955;52.442;13.284;2022-07-23T02:17:48;22.40;50.00
67050;DHT22;53955;52.442;13.284;2022-07-23T02:20:15;22.40;49.90
67050;DHT22;53955;52.442;13.284;2022-07-23T02:22:42;22.40;50.20
67050;DHT22;53955;52.442;13.284;2022-07-23T02:25:08;22.30;50.30
67050;DHT22;53955;52.442;13.284;2022-07-23T02:27:36;22.30;50.60
67050;DHT22;53955;52.442;13.284;2022-07-23T02:30:03;22.20;51.10
67050;DHT22;53955;52.442;13.284;2022-07-23T02:32:31;22.10;51.10
67050;DHT22;53955;52.442;13.284;2022-07-23T02:34:58;22.10;51.30
67050;DHT22;53955;52.442;13.284;2022-07-23T02:37:24;22.10;51.00
67050;DHT22;53955;52.442;13.284;2022-07-23T02:39:51;22.00;51.60
67050;DHT22;53955;52.442;13.284;2022-07-23T02:42:17;22.00;51.50
67050;DHT22;53955;52.442;13.284;2022-07-23T02:44:44;22.10;51.00
67050;DHT22;53955;52.442;13.284;2022-07-23T02:47:11;22.10;51.30
67050;DHT22;53955;52.442;13.284;2022-07-23T02:49:39;22.10;51.50
67050;DHT22;53955;52.442;13.284;2022-07-23T02:52:05;22.10;52.20
67050;DHT22;53955;52.442;13.284;2022-07-23T02:54:32;22.00;51.60
67050;DHT22;53955;52.442;13.284;2022-07-23T02:56:58;22.00;50.70
67050;DHT22;53955;52.442;13.284;2022-07-23T02:59:25;22.00;50.70
67050;DHT22;53955;52.442;13.284;2022-07-23T03:01:51;22.00;51.10
67050;DHT22;53955;52.442;13.284;2022-07-23T03:04:18;21.90;51.70
67050;DHT22;53955;52.442;13.284;2022-07-23T03:06:46;21.90;52.00
67050;DHT22;53955;52.442;13.284;2022-07-23T03:09:12;21.80;51.30
67050;DHT22;53955;52.442;13.284;2022-07-23T03:11:39;21.80;51.40
67050;DHT22;53955;52.442;13.284;2022-07-23T03:14:06;21.80;51.90
67050;DHT22;53955;52.442;13.284;2022-07-23T03:16:33;21.90;52.00
67050;DHT22;53955;52.442;13.284;2022-07-23T03:18:59;22.00;51.60
67050;DHT22;53955;52.442;13.284;2022-07-23T03:21:26;21.80;51.30
67050;DHT22;53955;52.442;13.284;2022-07-23T03:23:53;21.90;51.70
67050;DHT22;53955;52.442;13.284;2022-07-23T03:26:20;21.90;52.00
67050;DHT22;53955;52.442;13.284;2022-07-23T03:28:50;21.90;51.50
67050;DHT22;53955;52.442;13.284;2022-07-23T03:31:17;21.90;51.70
67050;DHT22;53955;52.442;13.284;2022-07-23T03:33:43;21.90;51.00
67050;DHT22;53955;52.442;13.284;2022-07-23T03:36:10;21.90;51.80
67050;DHT22;53955;52.442;13.284;2022-07-23T03:38:36;21.90;51.80
67050;DHT22;53955;52.442;13.284;2022-07-23T03:41:04;21.80;52.10
67050;DHT22;53955;52.442;13.284;2022-07-23T03:43:31;22.00;51.00
67050;DHT22;53955;52.442;13.284;2022-07-23T03:45:57;22.00;51.00
67050;DHT22;53955;52.442;13.284;2022-07-23T03:48:24;22.00;51.10
67050;DHT22;53955;52.442;13.284;2022-07-23T03:50:50;21.90;51.50
67050;DHT22;53955;52.442;13.284;2022-07-23T03:53:17;21.90;51.30
67050;DHT22;53955;52.442;13.284;2022-07-23T03:55:43;21.90;49.80
67050;DHT22;53955;52.442;13.284;2022-07-23T03:58:11;22.00;49.60
67050;DHT22;53955;52.442;13.284;2022-07-23T04:00:38;22.00;49.80
67050;DHT22;53955;52.442;13.284;2022-07-23T04:03:04;21.90;49.70
67050;DHT22;53955;52.442;13.284;2022-07-23T04:05:31;22.10;48.90
67050;DHT22;53955;52.442;13.284;2022-07-23T04:07:57;22.10;48.60
67050;DHT22;53955;52.442;13.284;2022-07-23T04:10:24;22.10;49.10
67050;DHT22;53955;52.442;13.284;2022-07-23T04:12:51;22.00;48.50
67050;DHT22;53955;52.442;13.284;2022-07-23T04:15:19;22.00;48.40
67050;DHT22;53955;52.442;13.284;2022-07-23T04:17:45;22.00;48.60
67050;DHT22;53955;52.442;13.284;2022-07-23T04:20:12;21.80;48.70
67050;DHT22;53955;52.442;13.284;2022-07-23T04:22:39;21.80;47.20
67050;DHT22;53955;52.442;13.284;2022-07-23T04:25:06;21.90;46.70
67050;DHT22;53955;52.442;13.284;2022-07-23T04:27:32;21.80;46.90
67050;DHT22;53955;52.442;13.284;2022-07-23T04:29:59;21.80;49.10
67050;DHT22;53955;52.442;13.284;2022-07-23T04:32:27;21.70;50.70
67050;DHT22;53955;52.442;13.284;2022-07-23T04:34:53;21.60;54.00
67050;DHT22;53955;52.442;13.284;2022-07-23T04:37:20;21.40;55.10
67050;DHT22;53955;52.442;13.284;2022-07-23T04:39:46;21.30;54.90
67050;DHT22;53955;52.442;13.284;2022-07-23T04:42:13;21.20;56.50
67050;DHT22;53955;52.442;13.284;2022-07-23T04:44:39;21.10;57.30
67050;DHT22;53955;52.442;13.284;2022-07-23T04:47:06;21.00;57.30
67050;DHT22;53955;52.442;13.284;2022-07-23T04:49:34;20.90;58.70
67050;DHT22;53955;52.442;13.284;2022-07-23T04:52:00;20.90;59.90
67050;DHT22;53955;52.442;13.284;2022-07-23T04:54:27;20.90;61.00
67050;DHT22;53955;52.442;13.284;2022-07-23T04:56:53;21.00;60.00
67050;DHT22;53955;52.442;13.284;2022-07-23T04:59:20;21.20;59.00
67050;DHT22;53955;52.442;13.284;2022-07-23T05:01:47;21.20;57.80
67050;DHT22;53955;52.442;13.284;2022-07-23T05:04:14;21.10;59.60
67050;DHT22;53955;52.442;13.284;2022-07-23T05:06:41;20.90;60.10
67050;DHT22;53955;52.442;13.284;2022-07-23T05:09:08;20.90;61.20
67050;DHT22;53955;52.442;13.284;2022-07-23T05:11:35;21.00;58.30
67050;DHT22;53955;52.442;13.284;2022-07-23T05:14:01;21.00;58.40
67050;DHT22;53955;52.442;13.284;2022-07-23T05:16:28;21.00;57.90
67050;DHT22;53955;52.442;13.284;2022-07-23T05:18:54;21.00;58.00
67050;DHT22;53955;52.442;13.284;2022-07-23T05:21:21;20.90;61.00
67050;DHT22;53955;52.442;13.284;2022-07-23T05:23:49;20.80;61.70
67050;DHT22;53955;52.442;13.284;2022-07-23T05:26:15;20.80;61.70
67050;DHT22;53955;52.442;13.284;2022-07-23T05:28:42;21.00;58.50
67050;DHT22;53955;52.442;13.284;2022-07-23T05:31:08;21.00;58.40
67050;DHT22;53955;52.442;13.284;2022-07-23T05:33:35;20.90;59.20
67050;DHT22;53955;52.442;13.284;2022-07-23T05:36:02;20.90;61.60
67050;DHT22;53955;52.442;13.284;2022-07-23T05:38:29;20.70;64.40
67050;DHT22;53955;52.442;13.284;2022-07-23T05:40:57;20.70;65.10
67050;DHT22;53955;52.442;13.284;2022-07-23T05:43:24;20.70;62.90
67050;DHT22;53955;52.442;13.284;2022-07-23T05:45:50;20.60;61.50
67050;DHT22;53955;52.442;13.284;2022-07-23T05:48:17;20.60;62.00
67050;DHT22;53955;52.442;13.284;2022-07-23T05:50:43;20.50;63.80
67050;DHT22;53955;52.442;13.284;2022-07-23T05:53:10;20.50;62.90
67050;DHT22;53955;52.442;13.284;2022-07-23T05:55:37;20.50;63.80
67050;DHT22;53955;52.442;13.284;2022-07-23T05:58:04;20.50;64.10
67050;DHT22;53955;52.442;13.284;2022-07-23T06:00:31;20.60;59.80
67050;DHT22;53955;52.442;13.284;2022-07-23T06:02:58;20.50;60.50
67050;DHT22;53955;52.442;13.284;2022-07-23T06:05:25;20.80;62.30
67050;DHT22;53955;52.442;13.284;2022-07-23T06:07:51;20.80;61.30
67050;DHT22;53955;52.442;13.284;2022-07-23T06:10:18;20.70;62.70
67050;DHT22;53955;52.442;13.284;2022-07-23T06:12:45;21.00;60.60
67050;DHT22;53955;52.442;13.284;2022-07-23T06:15:13;21.00;59.20
67050;DHT22;53955;52.442;13.284;2022-07-23T06:17:40;20.80;64.30
67050;DHT22;53955;52.442;13.284;2022-07-23T06:20:07;20.60;62.00
67050;DHT22;53955;52.442;13.284;2022-07-23T06:22:34;20.50;63.40
67050;DHT22;53955;52.442;13.284;2022-07-23T06:25:01;20.50;66.40
67050;DHT22;53955;52.442;13.284;2022-07-23T06:27:28;20.40;67.40
67050;DHT22;53955;52.442;13.284;2022-07-23T06:29:54;20.60;67.40
67050;DHT22;53955;52.442;13.284;2022-07-23T06:32:22;20.50;66.30
67050;DHT22;53955;52.442;13.284;2022-07-23T06:34:49;20.50;66.80
67050;DHT22;53955;52.442;13.284;2022-07-23T06:37:16;20.50;66.50
67050;DHT22;53955;52.442;13.284;2022-07-23T06:39:42;20.50;66.80
67050;DHT22;53955;52.442;13.284;2022-07-23T06:42:09;20.40;65.60
67050;DHT22;53955;52.442;13.284;2022-07-23T06:44:37;20.50;65.50
67050;DHT22;53955;52.442;13.284;2022-07-23T06:47:04;20.60;65.20
67050;DHT22;53955;52.442;13.284;2022-07-23T06:49:32;20.60;66.50
67050;DHT22;53955;52.442;13.284;2022-07-23T06:51:58;20.70;67.10
67050;DHT22;53955;52.442;13.284;2022-07-23T06:54:25;20.70;68.10
67050;DHT22;53955;52.442;13.284;2022-07-23T06:56:51;20.70;65.40
67050;DHT22;53955;52.442;13.284;2022-07-23T06:59:18;20.90;63.70
67050;DHT22;53955;52.442;13.284;2022-07-23T07:01:44;20.80;64.10
67050;DHT22;53955;52.442;13.284;2022-07-23T07:04:11;20.80;65.40
67050;DHT22;53955;52.442;13.284;2022-07-23T07:06:39;20.80;66.20
67050;DHT22;53955;52.442;13.284;2022-07-23T07:09:05;20.70;67.70
67050;DHT22;53955;52.442;13.284;2022-07-23T07:11:32;20.80;66.80
67050;DHT22;53955;52.442;13.284;2022-07-23T07:13:59;20.90;68.20
67050;DHT22;53955;52.442;13.284;2022-07-23T07:16:25;20.80;68.20
67050;DHT22;53955;52.442;13.284;2022-07-23T07:18:52;20.90;68.10
67050;DHT22;53955;52.442;13.284;2022-07-23T07:21:18;20.90;66.50
67050;DHT22;53955;52.442;13.284;2022-07-23T07:23:46;21.00;66.20
67050;DHT22;53955;52.442;13.284;2022-07-23T07:26:13;21.10;65.90
67050;DHT22;53955;52.442;13.284;2022-07-23T07:28:39;21.20;65.60
67050;DHT22;53955;52.442;13.284;2022-07-23T07:31:06;21.40;63.00
67050;DHT22;53955;52.442;13.284;2022-07-23T07:33:33;21.30;63.50
67050;DHT22;53955;52.442;13.284;2022-07-23T07:35:59;21.40;64.00
67050;DHT22;53955;52.442;13.284;2022-07-23T07:38:26;21.50;63.30
67050;DHT22;53955;52.442;13.284;2022-07-23T07:40:54;21.30;63.90
67050;DHT22;53955;52.442;13.284;2022-07-23T07:43:21;21.50;65.00
67050;DHT22;53955;52.442;13.284;2022-07-23T07:45:47;21.50;65.00
67050;DHT22;53955;52.442;13.284;2022-07-23T07:48:14;21.50;65.40
67050;DHT22;53955;52.442;13.284;2022-07-23T07:50:41;21.60;64.40
67050;DHT22;53955;52.442;13.284;2022-07-23T07:53:07;21.60;65.90
67050;DHT22;53955;52.442;13.284;2022-07-23T07:55:34;21.60;64.60
67050;DHT22;53955;52.442;13.284;2022-07-23T07:58:02;21.70;65.00
67050;DHT22;53955;52.442;13.284;2022-07-23T08:00:29;21.80;65.40
67050;DHT22;53955;52.442;13.284;2022-07-23T08:02:55;21.90;65.40
67050;DHT22;53955;52.442;13.284;2022-07-23T08:05:24;22.10;66.10
67050;DHT22;53955;52.442;13.284;2022-07-23T08:07:52;22.60;63.90
67050;DHT22;53955;52.442;13.284;2022-07-23T08:10:19;23.20;62.80
67050;DHT22;53955;52.442;13.284;2022-07-23T08:12:47;23.80;55.40
67050;DHT22;53955;52.442;13.284;2022-07-23T08:15:19;24.30;51.70
67050;DHT22;53955;52.442;13.284;2022-07-23T08:17:46;24.60;50.70
67050;DHT22;53955;52.442;13.284;2022-07-23T08:20:15;24.70;52.20
67050;DHT22;53955;52.442;13.284;2022-07-23T08:22:44;24.90;51.10
67050;DHT22;53955;52.442;13.284;2022-07-23T08:25:10;25.00;52.50
67050;DHT22;53955;52.442;13.284;2022-07-23T08:27:37;25.00;53.30
67050;DHT22;53955;52.442;13.284;2022-07-23T08:30:05;25.30;50.70
67050;DHT22;53955;52.442;13.284;2022-07-23T08:32:33;25.60;49.10
67050;DHT22;53955;52.442;13.284;2022-07-23T08:34:59;25.60;48.80
67050;DHT22;53955;52.442;13.284;2022-07-23T08:37:26;25.50;50.50
67050;DHT22;53955;52.442;13.284;2022-07-23T08:39:52;25.60;49.70
67050;DHT22;53955;52.442;13.284;2022-07-23T08:42:21;25.40;49.20
67050;DHT22;53955;52.442;13.284;2022-07-23T08:44:48;25.40;51.20
67050;DHT22;53955;52.442;13.284;2022-07-23T08:47:15;25.60;48.30
67050;DHT22;53955;52.442;13.284;2022-07-23T08:49:43;25.70;48.30
67050;DHT22;53955;52.442;13.284;2022-07-23T08:52:11;26.10;46.10
67050;DHT22;53955;52.442;13.284;2022-07-23T08:54:38;25.90;47.50
67050;DHT22;53955;52.442;13.284;2022-07-23T08:57:05;25.70;48.10
67050;DHT22;53955;52.442;13.284;2022-07-23T08:59:31;25.80;46.80
67050;DHT22;53955;52.442;13.284;2022-07-23T09:01:58;26.00;47.60
67050;DHT22;53955;52.442;13.284;2022-07-23T09:04:26;26.00;46.70
67050;DHT22;53955;52.442;13.284;2022-07-23T09:06:54;25.90;46.90
67050;DHT22;53955;52.442;13.284;2022-07-23T09:09:21;26.10;45.40
67050;DHT22;53955;52.442;13.284;2022-07-23T09:12:01;26.20;46.60
67050;DHT22;53955;52.442;13.284;2022-07-23T09:14:36;26.20;46.00
67050;DHT22;53955;52.442;13.284;2022-07-23T09:17:11;26.30;46.70
67050;DHT22;53955;52.442;13.284;2022-07-23T09:19:39;26.60;42.30
67050;DHT22;53955;52.442;13.284;2022-07-23T09:22:21;26.40;42.90
67050;DHT22;53955;52.442;13.284;2022-07-23T09:25:09;26.30;44.70
67050;DHT22;53955;52.442;13.284;2022-07-23T09:28:00;25.90;45.60
67050;DHT22;53955;52.442;13.284;2022-07-23T09:30:30;25.40;47.00
67050;DHT22;53955;52.442;13.284;2022-07-23T09:33:04;25.30;46.90
67050;DHT22;53955;52.442;13.284;2022-07-23T09:35:48;25.40;46.90
67050;DHT22;53955;52.442;13.284;2022-07-23T09:38:17;25.40;46.40
67050;DHT22;53955;52.442;13.284;2022-07-23T09:40:46;25.20;47.50
67050;DHT22;53955;52.442;13.284;2022-07-23T09:43:13;25.20;47.70
67050;DHT22;53955;52.442;13.284;2022-07-23T09:45:51;25.50;47.10
67050;DHT22;53955;52.442;13.284;2022-07-23T09:48:18;25.60;46.70
67050;DHT22;53955;52.442;13.284;2022-07-23T09:50:45;25.70;45.80
67050;DHT22;53955;52.442;13.284;2022-07-23T09:53:24;25.70;46.20
67050;DHT22;53955;52.442;13.284;2022-07-23T09:55:53;25.80;46.40
67050;DHT22;53955;52.442;13.284;2022-07-23T09:58:23;26.10;45.00
67050;DHT22;53955;52.442;13.284;2022-07-23T10:00:52;26.20;43.70
67050;DHT22;53955;52.442;13.284;2022-07-23T10:03:19;26.40;42.80
67050;DHT22;53955;52.442;13.284;2022-07-23T10:05:47;26.80;42.30
67050;DHT22;53955;52.442;13.284;2022-07-23T10:08:18;27.10;41.50
67050;DHT22;53955;52.442;13.284;2022-07-23T10:10:47;27.30;41.20
67050;DHT22;53955;52.442;13.284;2022-07-23T10:13:14;27.20;40.00
67050;DHT22;53955;52.442;13.284;2022-07-23T10:16:01;27.00;37.50
67050;DHT22;53955;52.442;13.284;2022-07-23T10:18:30;26.70;39.90
67050;DHT22;53955;52.442;13.284;2022-07-23T10:20:56;26.50;40.50
67050;DHT22;53955;52.442;13.284;2022-07-23T10:23:28;26.20;41.40
67050;DHT22;53955;52.442;13.284;2022-07-23T10:26:04;25.90;42.10
67050;DHT22;53955;52.442;13.284;2022-07-23T10:28:46;25.80;42.00
67050;DHT22;53955;52.442;13.284;2022-07-23T10:31:25;25.80;42.20
67050;DHT22;53955;52.442;13.284;2022-07-23T10:33:59;25.80;41.30
67050;DHT22;53955;52.442;13.284;2022-07-23T10:36:32;25.60;43.40
67050;DHT22;53955;52.442;13.284;2022-07-23T10:39:05;25.70;42.60
67050;DHT22;53955;52.442;13.284;2022-07-23T10:41:35;25.80;42.30
67050;DHT22;53955;52.442;13.284;2022-07-23T10:44:08;25.90;42.20
67050;DHT22;53955;52.442;13.284;2022-07-23T10:46:35;26.10;41.60
67050;DHT22;53955;52.442;13.284;2022-07-23T10:49:24;26.20;41.20
67050;DHT22;53955;52.442;13.284;2022-07-23T10:52:17;26.50;39.80
67050;DHT22;53955;52.442;13.284;2022-07-23T10:54:45;26.70;39.10
67050;DHT22;53955;52.442;13.284;2022-07-23T10:57:15;27.10;38.70
67050;DHT22;53955;52.442;13.284;2022-07-23T11:02:52;27.40;35.80
67050;DHT22;53955;52.442;13.284;2022-07-23T11:05:22;27.40;37.00
67050;DHT22;53955;52.442;13.284;2022-07-23T11:08:17;27.60;36.00
67050;DHT22;53955;52.442;13.284;2022-07-23T11:10:48;27.70;36.10
67050;DHT22;53955;52.442;13.284;2022-07-23T11:13:42;27.70;37.20
67050;DHT22;53955;52.442;13.284;2022-07-23T11:19:06;27.50;35.20
67050;DHT22;53955;52.442;13.284;2022-07-23T11:21:44;27.60;35.30
67050;DHT22;53955;52.442;13.284;2022-07-23T11:24:12;27.60;34.60
67050;DHT22;53955;52.442;13.284;2022-07-23T11:27:02;27.50;35.10
67050;DHT22;53955;52.442;13.284;2022-07-23T11:29:47;27.50;35.60
67050;DHT22;53955;52.442;13.284;2022-07-23T11:32:40;27.40;34.90
67050;DHT22;53955;52.442;13.284;2022-07-23T11:35:22;27.20;35.10
67050;DHT22;53955;52.442;13.284;2022-07-23T11:37:49;27.30;35.50
67050;DHT22;53955;52.442;13.284;2022-07-23T11:40:20;27.50;34.90
67050;DHT22;53955;52.442;13.284;2022-07-23T11:42:52;27.70;34.20
67050;DHT22;53955;52.442;13.284;2022-07-23T11:45:20;27.60;33.20
67050;DHT22;53955;52.442;13.284;2022-07-23T11:47:47;27.30;34.40
67050;DHT22;53955;52.442;13.284;2022-07-23T11:50:14;27.30;34.50
67050;DHT22;53955;52.442;13.284;2022-07-23T11:52:40;27.40;35.10
67050;DHT22;53955;52.442;13.284;2022-07-23T11:55:09;27.30;35.30
67050;DHT22;53955;52.442;13.284;2022-07-23T11:57:38;27.10;35.30
67050;DHT22;53955;52.442;13.284;2022-07-23T12:00:07;27.10;35.10
67050;DHT22;53955;52.442;13.284;2022-07-23T12:02:37;27.00;35.00
67050;DHT22;53955;52.442;13.284;2022-07-23T12:05:05;27.10;35.30
67050;DHT22;53955;52.442;13.284;2022-07-23T12:07:33;27.10;34.40
67050;DHT22;53955;52.442;13.284;2022-07-23T12:10:03;27.10;35.40
67050;DHT22;53955;52.442;13.284;2022-07-23T12:12:36;27.10;35.10
67050;DHT22;53955;52.442;13.284;2022-07-23T12:15:04;27.30;34.90
67050;DHT22;53955;52.442;13.284;2022-07-23T12:17:33;27.30;34.60
67050;DHT22;53955;52.442;13.284;2022-07-23T12:20:02;27.50;35.60
67050;DHT22;53955;52.442;13.284;2022-07-23T12:22:34;27.50;34.30
67050;DHT22;53955;52.442;13.284;2022-07-23T12:25:04;27.40;33.10
67050;DHT22;53955;52.442;13.284;2022-07-23T12:27:31;27.30;34.10
67050;DHT22;53955;52.442;13.284;2022-07-23T12:29:58;27.10;35.50
67050;DHT22;53955;52.442;13.284;2022-07-23T12:32:26;27.20;35.00
67050;DHT22;53955;52.442;13.284;2022-07-23T12:35:04;27.10;34.60
67050;DHT22;53955;52.442;13.284;2022-07-23T12:37:32;27.10;34.00
67050;DHT22;53955;52.442;13.284;2022-07-23T12:40:18;27.00;34.60
67050;DHT22;53955;52.442;13.284;2022-07-23T12:42:45;26.80;35.30
67050;DHT22;53955;52.442;13.284;2022-07-23T12:45:12;26.90;33.90
67050;DHT22;53955;52.442;13.284;2022-07-23T12:47:59;26.90;34.10
67050;DHT22;53955;52.442;13.284;2022-07-23T12:50:35;27.00;34.70
67050;DHT22;53955;52.442;13.284;2022-07-23T12:53:11;27.10;34.90
67050;DHT22;53955;52.442;13.284;2022-07-23T12:55:39;27.00;34.70
67050;DHT22;53955;52.442;13.284;2022-07-23T12:58:07;27.00;34.90
67050;DHT22;53955;52.442;13.284;2022-07-23T13:01:03;26.90;35.20
67050;DHT22;53955;52.442;13.284;2022-07-23T13:03:36;27.20;36.00
67050;DHT22;53955;52.442;13.284;2022-07-23T13:06:07;27.50;34.10
67050;DHT22;53955;52.442;13.284;2022-07-23T13:08:36;27.60;33.50
67050;DHT22;53955;52.442;13.284;2022-07-23T13:11:03;27.90;33.40
67050;DHT22;53955;52.442;13.284;2022-07-23T13:13:32;27.90;31.20
67050;DHT22;53955;52.442;13.284;2022-07-23T13:15:59;27.80;31.80
67050;DHT22;53955;52.442;13.284;2022-07-23T13:18:27;27.60;31.30
67050;DHT22;53955;52.442;13.284;2022-07-23T13:20:54;27.40;31.60
67050;DHT22;53955;52.442;13.284;2022-07-23T13:23:23;27.50;31.40
67050;DHT22;53955;52.442;13.284;2022-07-23T13:25:50;27.20;32.30
67050;DHT22;53955;52.442;13.284;2022-07-23T13:28:18;27.10;33.20
67050;DHT22;53955;52.442;13.284;2022-07-23T13:30:46;27.40;33.20
67050;DHT22;53955;52.442;13.284;2022-07-23T13:33:15;27.40;33.40
67050;DHT22;53955;52.442;13.284;2022-07-23T13:35:42;27.30;32.30
67050;DHT22;53955;52.442;13.284;2022-07-23T13:38:09;27.50;33.00
67050;DHT22;53955;52.442;13.284;2022-07-23T13:40:39;27.50;31.30
67050;DHT22;53955;52.442;13.284;2022-07-23T13:43:08;27.60;32.60
67050;DHT22;53955;52.442;13.284;2022-07-23T13:45:34;27.80;31.30
67050;DHT22;53955;52.442;13.284;2022-07-23T13:48:01;27.70;30.60
67050;DHT22;53955;52.442;13.284;2022-07-23T13:50:28;27.70;31.40
67050;DHT22;53955;52.442;13.284;2022-07-23T13:52:55;27.70;30.70
67050;DHT22;53955;52.442;13.284;2022-07-23T13:55:22;27.60;31.40
67050;DHT22;53955;52.442;13.284;2022-07-23T13:57:50;27.60;31.50
67050;DHT22;53955;52.442;13.284;2022-07-23T14:00:16;27.70;31.50
67050;DHT22;53955;52.442;13.284;2022-07-23T14:02:43;27.80;31.60
67050;DHT22;53955;52.442;13.284;2022-07-23T14:05:10;27.80;30.20
67050;DHT22;53955;52.442;13.284;2022-07-23T14:07:38;27.90;31.60
67050;DHT22;53955;52.442;13.284;2022-07-23T14:10:07;28.00;28.90
67050;DHT22;53955;52.442;13.284;2022-07-23T14:12:34;28.10;29.50
67050;DHT22;53955;52.442;13.284;2022-07-23T14:15:02;28.10;29.60
67050;DHT22;53955;52.442;13.284;2022-07-23T14:17:29;28.10;28.30
67050;DHT22;53955;52.442;13.284;2022-07-23T14:19:57;28.00;28.40
67050;DHT22;53955;52.442;13.284;2022-07-23T14:22:23;27.90;28.30
67050;DHT22;53955;52.442;13.284;2022-07-23T14:24:50;28.00;29.40
67050;DHT22;53955;52.442;13.284;2022-07-23T14:27:17;28.00;28.80
67050;DHT22;53955;52.442;13.284;2022-07-23T14:29:43;28.10;28.30
67050;DHT22;53955;52.442;13.284;2022-07-23T14:32:11;28.30;28.20
67050;DHT22;53955;52.442;13.284;2022-07-23T14:34:38;28.30;27.30
67050;DHT22;53955;52.442;13.284;2022-07-23T14:37:05;28.30;27.40
67050;DHT22;53955;52.442;13.284;2022-07-23T14:39:31;28.30;27.00
67050;DHT22;53955;52.442;13.284;2022-07-23T14:41:58;28.10;27.90
67050;DHT22;53955;52.442;13.284;2022-07-23T14:44:25;27.90;27.90
67050;DHT22;53955;52.442;13.284;2022-07-23T14:46:53;27.80;28.10
67050;DHT22;53955;52.442;13.284;2022-07-23T14:49:21;27.80;27.50
67050;DHT22;53955;52.442;13.284;2022-07-23T14:51:47;27.90;28.60
67050;DHT22;53955;52.442;13.284;2022-07-23T14:54:14;27.90;28.50
67050;DHT22;53955;52.442;13.284;2022-07-23T14:56:41;27.90;27.90
67050;DHT22;53955;52.442;13.284;2022-07-23T14:59:08;28.00;27.90
67050;DHT22;53955;52.442;13.284;2022-07-23T15:01:35;28.00;27.40
67050;DHT22;53955;52.442;13.284;2022-07-23T15:04:03;28.10;26.90
67050;DHT22;53955;52.442;13.284;2022-07-23T15:06:31;28.00;26.50
67050;DHT22;53955;52.442;13.284;2022-07-23T15:08:58;28.00;27.10
67050;DHT22;53955;52.442;13.284;2022-07-23T15:11:26;28.10;27.00
67050;DHT22;53955;52.442;13.284;2022-07-23T15:13:54;28.20;27.50
67050;DHT22;53955;52.442;13.284;2022-07-23T15:16:21;28.20;27.40
67050;DHT22;53955;52.442;13.284;2022-07-23T15:18:47;28.20;26.80
67050;DHT22;53955;52.442;13.284;2022-07-23T15:21:14;28.00;26.40
67050;DHT22;53955;52.442;13.284;2022-07-23T15:23:42;27.80;27.10
67050;DHT22;53955;52.442;13.284;2022-07-23T15:26:08;27.70;26.40
67050;DHT22;53955;52.442;13.284;2022-07-23T15:28:36;27.80;26.10